createdAt,value
2019-02-27T00:01:00.873Z,7.40
2019-02-27T00:03:05.390Z,7.30
2019-02-27T00:05:09.787Z,6.97
2019-02-27T00:07:14.196Z,9.37
2019-02-27T00:09:18.546Z,7.87
2019-02-27T00:11:22.942Z,9.73
2019-02-27T00:13:27.255Z,9.27
2019-02-27T00:15:31.607Z,7.63
2019-02-27T00:17:35.942Z,7.30
2019-02-27T00:19:40.351Z,7.50
2019-02-27T00:21:44.698Z,9.00
2019-02-27T00:23:49.052Z,11.03
2019-02-27T00:25:53.414Z,9.80
2019-02-27T00:27:57.771Z,10.67
2019-02-27T00:30:05.073Z,8.03
2019-02-27T00:32:06.570Z,8.07
2019-02-27T00:34:10.952Z,7.87
2019-02-27T00:36:15.270Z,7.73
2019-02-27T00:38:19.624Z,7.87
2019-02-27T00:40:23.999Z,7.40
2019-02-27T00:42:33.543Z,7.03
2019-02-27T00:44:34.781Z,7.47
2019-02-27T00:46:37.221Z,7.83
2019-02-27T00:48:41.593Z,7.13
2019-02-27T00:50:45.928Z,7.60
2019-02-27T00:52:51.108Z,7.63
2019-02-27T00:54:54.660Z,7.17
2019-02-27T00:56:59.006Z,7.03
2019-02-27T00:59:03.345Z,6.43
2019-02-27T01:01:10.075Z,7.10
2019-02-27T01:03:12.142Z,6.97
2019-02-27T01:05:16.606Z,7.20
2019-02-27T01:07:21.456Z,7.57
2019-02-27T01:09:25.333Z,6.93
2019-02-27T01:11:29.718Z,7.73
2019-02-27T01:13:34.061Z,7.07
2019-02-27T01:15:38.462Z,6.30
2019-02-27T01:17:42.938Z,7.53
2019-02-27T01:19:47.301Z,6.93
2019-02-27T01:21:51.618Z,6.43
2019-02-27T01:23:56.011Z,6.03
2019-02-27T01:26:00.354Z,6.37
2019-02-27T01:28:04.720Z,6.10
2019-02-27T01:30:10.376Z,6.70
2019-02-27T01:32:14.699Z,6.23
2019-02-27T01:34:19.073Z,7.23
2019-02-27T01:36:24.615Z,6.17
2019-02-27T01:38:27.833Z,6.67
2019-02-27T01:40:32.202Z,7.20
2019-02-27T01:42:36.695Z,6.47
2019-02-27T01:44:44.035Z,5.87
2019-02-27T01:46:47.606Z,5.77
2019-02-27T01:48:51.942Z,7.40
2019-02-27T01:50:56.346Z,6.17
2019-02-27T01:53:00.793Z,6.30
2019-02-27T01:55:05.229Z,5.77
2019-02-27T01:57:09.561Z,6.53
2019-02-27T01:59:14.013Z,6.53
2019-02-27T02:01:18.333Z,6.27
2019-02-27T02:03:22.692Z,5.97
2019-02-27T02:05:27.447Z,6.60
2019-02-27T02:07:31.571Z,6.00
2019-02-27T02:09:37.582Z,6.10
2019-02-27T02:11:41.938Z,6.83
2019-02-27T02:13:57.505Z,5.70
2019-02-27T02:18:15.699Z,6.57
2019-02-27T02:20:36.100Z,6.60
2019-02-27T02:23:21.066Z,5.97
2019-02-27T02:25:37.289Z,5.47
2019-02-27T02:27:53.602Z,6.67
2019-02-27T02:30:10.600Z,6.23
2019-02-27T02:32:26.112Z,7.37
2019-02-27T02:34:43.965Z,5.63
2019-02-27T02:37:21.655Z,7.07
2019-02-27T02:40:03.093Z,6.57
2019-02-27T02:43:20.670Z,6.73
2019-02-27T02:45:42.634Z,6.10
2019-02-27T02:48:05.964Z,5.63
2019-02-27T02:50:57.495Z,6.87
2019-02-27T02:53:12.683Z,7.00
2019-02-27T02:56:27.211Z,6.33
2019-02-27T02:58:48.394Z,7.47
2019-02-27T03:01:15.153Z,6.53
2019-02-27T03:03:24.884Z,6.20
2019-02-27T03:05:40.425Z,6.03
2019-02-27T03:08:23.602Z,6.67
2019-02-27T03:10:44.572Z,6.17
2019-02-27T03:13:11.171Z,13.87
2019-02-27T03:15:37.050Z,6.13
2019-02-27T03:19:58.030Z,5.17
2019-02-27T03:22:09.973Z,6.50
2019-02-27T03:25:20.630Z,7.00
2019-02-27T03:27:42.859Z,7.40
2019-02-27T03:32:22.825Z,5.40
2019-02-27T03:34:57.584Z,6.10
2019-02-27T03:37:16.081Z,6.17
2019-02-27T03:39:34.419Z,6.13
2019-02-27T03:42:25.671Z,8.00
2019-02-27T03:45:37.688Z,6.73
2019-02-27T03:48:27.847Z,6.00
2019-02-27T03:51:25.382Z,6.83
2019-02-27T03:53:46.432Z,7.10
2019-02-27T03:56:09.748Z,7.00
2019-02-27T03:58:45.550Z,6.97
2019-02-27T04:01:02.311Z,5.77
2019-02-27T04:03:22.993Z,6.87
2019-02-27T04:06:06.102Z,6.73
2019-02-27T04:08:29.055Z,6.27
2019-02-27T04:10:33.572Z,7.90
2019-02-27T04:12:37.941Z,7.40
2019-02-27T04:14:42.343Z,7.60
2019-02-27T04:16:47.682Z,6.33
2019-02-27T04:18:52.062Z,6.93
2019-02-27T04:20:56.514Z,7.23
2019-02-27T04:23:00.891Z,5.93
2019-02-27T04:25:05.603Z,7.13
2019-02-27T04:27:09.988Z,6.10
2019-02-27T04:29:14.350Z,7.27
2019-02-27T04:31:18.697Z,7.10
2019-02-27T04:33:24.206Z,8.07
2019-02-27T04:35:27.418Z,7.10
2019-02-27T04:37:31.798Z,6.50
2019-02-27T04:39:38.266Z,8.20
2019-02-27T04:41:40.529Z,7.60
2019-02-27T04:43:44.884Z,6.60
2019-02-27T04:45:49.218Z,6.70
2019-02-27T04:47:53.550Z,7.17
2019-02-27T04:49:57.968Z,6.57
2019-02-27T04:52:02.321Z,7.00
2019-02-27T04:54:07.544Z,7.37
2019-02-27T04:56:11.137Z,7.17
2019-02-27T04:58:15.537Z,7.43
2019-02-27T05:00:19.862Z,7.57
2019-02-27T05:02:24.201Z,6.37
2019-02-27T05:04:28.597Z,6.67
2019-02-27T05:06:32.941Z,6.40
2019-02-27T05:08:37.270Z,5.97
2019-02-27T05:10:41.628Z,6.27
2019-02-27T05:12:48.162Z,6.00
2019-02-27T05:14:50.350Z,5.87
2019-02-27T05:16:54.766Z,5.97
2019-02-27T05:19:03.518Z,6.33
2019-02-27T05:21:03.497Z,7.27
2019-02-27T05:23:07.839Z,6.13
2019-02-27T05:25:14.435Z,7.17
2019-02-27T05:27:16.743Z,5.80
2019-02-27T05:29:21.077Z,7.00
2019-02-27T05:31:25.659Z,6.30
2019-02-27T05:33:30.010Z,8.30
2019-02-27T05:35:34.336Z,7.67
2019-02-27T05:37:39.431Z,7.13
2019-02-27T05:39:43.075Z,7.03
2019-02-27T05:41:47.441Z,8.10
2019-02-27T05:43:51.847Z,6.20
2019-02-27T05:45:56.394Z,6.90
2019-02-27T05:48:00.791Z,6.33
2019-02-27T05:50:06.129Z,6.67
2019-02-27T05:52:11.875Z,8.60
2019-02-27T05:54:14.880Z,8.13
2019-02-27T05:56:19.216Z,7.27
2019-02-27T05:58:23.629Z,7.73
2019-02-27T06:00:28.003Z,9.00
2019-02-27T06:02:32.340Z,6.60
2019-02-27T06:04:36.733Z,7.37
2019-02-27T06:06:44.856Z,5.73
2019-02-27T06:08:52.154Z,7.67
2019-02-27T06:10:56.572Z,7.13
2019-02-27T06:13:00.956Z,7.47
2019-02-27T06:15:06.346Z,7.10
2019-02-27T06:17:12.904Z,6.57
2019-02-27T06:19:15.110Z,6.43
2019-02-27T06:21:19.514Z,7.97
2019-02-27T06:23:23.932Z,6.93
2019-02-27T06:25:28.248Z,8.73
2019-02-27T06:27:32.588Z,7.40
2019-02-27T06:29:36.996Z,8.87
2019-02-27T06:31:41.425Z,8.80
2019-02-27T06:33:45.903Z,7.57
2019-02-27T06:35:50.163Z,7.27
2019-02-27T06:37:54.546Z,7.07
2019-02-27T06:39:58.877Z,7.80
2019-02-27T06:42:04.301Z,7.37
2019-02-27T06:44:08.685Z,7.37
2019-02-27T06:46:13.017Z,7.37
2019-02-27T06:48:17.386Z,6.83
2019-02-27T06:50:25.212Z,7.77
2019-02-27T06:52:26.156Z,6.73
2019-02-27T06:54:30.533Z,8.50
2019-02-27T06:56:34.867Z,6.60
2019-02-27T06:58:39.205Z,6.83
2019-02-27T07:00:43.542Z,7.57
2019-02-27T07:02:47.939Z,7.67
2019-02-27T07:04:52.298Z,14.97
2019-02-27T07:06:56.621Z,11.57
2019-02-27T07:09:00.927Z,9.43
2019-02-27T07:11:10.894Z,8.50
2019-02-27T07:13:09.639Z,6.43
2019-02-27T07:15:16.322Z,8.07
2019-02-27T07:17:20.665Z,6.60
2019-02-27T07:19:25.055Z,8.63
2019-02-27T07:21:32.436Z,7.17
2019-02-27T07:23:35.210Z,7.03
2019-02-27T07:25:42.023Z,6.37
2019-02-27T07:27:42.675Z,7.37
2019-02-27T07:29:47.075Z,7.47
2019-02-27T07:31:52.196Z,7.03
2019-02-27T07:33:55.847Z,9.00
2019-02-27T07:36:03.189Z,8.03
2019-02-27T07:38:04.921Z,9.13
2019-02-27T07:40:11.279Z,7.33
2019-02-27T07:42:15.696Z,8.20
2019-02-27T07:44:20.084Z,6.90
2019-02-27T07:46:24.429Z,7.83
2019-02-27T07:48:28.801Z,9.07
2019-02-27T07:50:33.267Z,10.00
2019-02-27T07:52:37.666Z,8.70
2019-02-27T07:54:42.013Z,8.67
2019-02-27T07:56:46.357Z,7.67
2019-02-27T07:58:50.739Z,8.17
2019-02-27T08:00:55.068Z,6.93
2019-02-27T08:02:59.429Z,6.63
2019-02-27T08:05:04.115Z,8.10
2019-02-27T08:07:10.003Z,6.33
2019-02-27T08:09:12.850Z,7.97
2019-02-27T08:11:17.211Z,6.27
2019-02-27T08:13:21.599Z,7.87
2019-02-27T08:15:26.020Z,6.53
2019-02-27T08:17:30.442Z,7.80
2019-02-27T08:19:34.810Z,8.30
2019-02-27T08:21:39.151Z,6.90
2019-02-27T08:23:43.478Z,6.67
2019-02-27T08:25:47.856Z,6.47
2019-02-27T08:27:54.149Z,6.53
2019-02-27T08:29:56.610Z,5.13
2019-02-27T08:32:01.730Z,6.03
2019-02-27T08:34:05.385Z,5.43
2019-02-27T08:36:09.714Z,6.17
2019-02-27T08:38:14.091Z,6.33
2019-02-27T08:40:18.778Z,6.13
2019-02-27T08:42:23.117Z,6.17
2019-02-27T08:44:27.742Z,5.70
2019-02-27T08:46:33.992Z,6.53
2019-02-27T08:48:36.581Z,7.10
2019-02-27T08:50:40.903Z,6.57
2019-02-27T08:52:50.137Z,5.90
2019-02-27T08:54:49.720Z,5.43
2019-02-27T08:56:54.192Z,6.00
2019-02-27T08:58:58.565Z,5.30
2019-02-27T09:01:03.034Z,4.67
2019-02-27T09:03:07.480Z,4.70
2019-02-27T09:05:12.033Z,4.27
2019-02-27T09:07:16.517Z,4.73
2019-02-27T09:09:21.382Z,4.43
2019-02-27T09:11:25.742Z,4.13
2019-02-27T09:13:30.106Z,5.50
2019-02-27T09:15:34.510Z,4.17
2019-02-27T09:17:38.986Z,4.20
2019-02-27T09:19:46.477Z,4.17
2019-02-27T09:21:50.455Z,5.87
2019-02-27T09:23:54.822Z,5.03
2019-02-27T09:26:02.528Z,4.80
2019-02-27T09:28:03.649Z,5.80
2019-02-27T09:30:09.216Z,3.97
2019-02-27T09:32:13.555Z,4.53
2019-02-27T09:34:17.976Z,5.03
2019-02-27T09:36:22.408Z,4.37
2019-02-27T09:38:26.767Z,4.60
2019-02-27T09:40:31.134Z,5.07
2019-02-27T09:42:35.562Z,5.90
2019-02-27T09:44:39.914Z,5.37
2019-02-27T09:46:44.290Z,4.80
2019-02-27T09:48:48.724Z,5.53
2019-02-27T09:50:53.086Z,4.60
2019-02-27T09:52:57.450Z,4.03
2019-02-27T09:55:01.865Z,6.67
2019-02-27T09:57:06.226Z,6.10
2019-02-27T09:59:10.575Z,5.23
2019-02-27T10:01:16.782Z,5.03
2019-02-27T10:03:21.623Z,4.90
2019-02-27T10:05:25.514Z,5.37
2019-02-27T10:07:29.891Z,3.97
2019-02-27T10:09:34.888Z,4.93
2019-02-27T10:11:38.606Z,4.77
2019-02-27T10:13:43.152Z,5.10
2019-02-27T10:15:47.512Z,4.87
2019-02-27T10:17:51.928Z,5.43
2019-02-27T10:20:01.271Z,5.33
2019-02-27T10:22:00.621Z,4.33
2019-02-27T10:24:05.484Z,6.37
2019-02-27T10:26:09.392Z,4.53
2019-02-27T10:28:13.793Z,4.77
2019-02-27T10:30:18.278Z,5.17
2019-02-27T10:32:22.768Z,4.47
2019-02-27T10:34:27.158Z,4.97
2019-02-27T10:36:31.495Z,4.50
2019-02-27T10:38:40.230Z,4.00
2019-02-27T10:40:40.392Z,5.23
2019-02-27T10:42:44.822Z,4.77
2019-02-27T10:44:49.158Z,4.30
2019-02-27T10:46:53.594Z,3.77
2019-02-27T10:48:57.976Z,4.37
2019-02-27T10:51:02.309Z,4.10
2019-02-27T10:53:06.702Z,3.87
2019-02-27T10:55:14.181Z,4.47
2019-02-27T10:57:16.974Z,4.40
2019-02-27T10:59:22.139Z,4.13
2019-02-27T11:01:25.726Z,3.77
2019-02-27T11:03:30.102Z,3.53
2019-02-27T11:05:34.827Z,4.00
2019-02-27T11:07:39.450Z,4.37
2019-02-27T11:09:43.814Z,4.40
2019-02-27T11:11:48.736Z,3.77
2019-02-27T11:13:55.202Z,4.73
2019-02-27T11:15:56.999Z,4.53
2019-02-27T11:18:05.486Z,4.60
2019-02-27T11:20:05.889Z,3.17
2019-02-27T11:22:10.230Z,3.50
2019-02-27T11:24:17.325Z,2.97
2019-02-27T11:26:18.993Z,4.57
2019-02-27T11:28:23.327Z,4.07
2019-02-27T11:30:30.344Z,4.07
2019-02-27T11:32:34.698Z,3.67
2019-02-27T11:34:39.042Z,3.50
2019-02-27T11:36:43.427Z,3.43
2019-02-27T11:38:47.844Z,3.23
2019-02-27T11:40:52.421Z,3.60
2019-02-27T11:42:56.884Z,2.93
2019-02-27T11:45:01.231Z,3.60
2019-02-27T11:47:05.600Z,4.60
2019-02-27T11:49:09.999Z,4.23
2019-02-27T11:51:14.318Z,3.73
2019-02-27T11:53:18.674Z,3.30
2019-02-27T11:55:24.490Z,4.03
2019-02-27T11:57:30.474Z,4.43
2019-02-27T11:59:31.902Z,4.13
2019-02-27T12:01:36.290Z,4.27
2019-02-27T12:03:40.650Z,3.73
2019-02-27T12:05:45.050Z,4.67
2019-02-27T12:07:51.218Z,4.93
2019-02-27T12:09:53.831Z,4.80
2019-02-27T12:11:58.185Z,3.90
2019-02-27T12:14:02.560Z,3.40
2019-02-27T12:16:07.082Z,3.20
2019-02-27T12:18:11.522Z,4.73
2019-02-27T12:20:18.321Z,4.37
2019-02-27T12:22:21.119Z,3.67
2019-02-27T12:24:25.462Z,5.20
2019-02-27T12:26:29.882Z,4.90
2019-02-27T12:28:34.254Z,4.07
2019-02-27T12:30:38.686Z,3.30
2019-02-27T12:32:43.162Z,4.00
2019-02-27T12:34:47.554Z,3.83
2019-02-27T12:36:52.641Z,3.80
2019-02-27T12:38:56.396Z,4.10
2019-02-27T12:41:00.728Z,4.70
2019-02-27T12:43:05.134Z,4.40
2019-02-27T12:45:13.068Z,4.20
2019-02-27T12:47:17.434Z,4.10
2019-02-27T12:49:21.797Z,4.83
2019-02-27T12:51:26.215Z,4.23
2019-02-27T12:53:30.593Z,3.83
2019-02-27T12:55:36.343Z,3.97
2019-02-27T12:57:39.470Z,4.07
2019-02-27T12:59:43.843Z,3.90
2019-02-27T13:01:50.941Z,3.67
2019-02-27T13:03:52.578Z,2.83
2019-02-27T13:05:58.226Z,4.00
2019-02-27T13:08:01.507Z,3.27
2019-02-27T13:10:07.973Z,3.27
2019-02-27T13:12:14.915Z,3.87
2019-02-27T13:14:16.750Z,3.37
2019-02-27T13:16:21.082Z,3.70
2019-02-27T13:18:25.558Z,2.83
2019-02-27T13:20:30.027Z,2.60
2019-02-27T13:22:34.422Z,4.00
2019-02-27T13:24:38.761Z,2.30
2019-02-27T13:26:43.205Z,3.17
2019-02-27T13:28:48.811Z,2.90
2019-02-27T13:30:51.935Z,3.00
2019-02-27T13:33:00.682Z,2.67
2019-02-27T13:35:00.780Z,2.80
2019-02-27T13:37:06.941Z,3.17
2019-02-27T13:39:09.902Z,3.97
2019-02-27T13:41:14.427Z,3.13
2019-02-27T13:43:18.962Z,2.40
2019-02-27T13:45:24.800Z,3.33
2019-02-27T13:47:31.619Z,2.90
2019-02-27T13:49:35.507Z,2.97
2019-02-27T13:51:40.361Z,3.30
2019-02-27T13:53:44.850Z,2.80
2019-02-27T13:55:49.004Z,3.17
2019-02-27T13:57:58.681Z,3.03
2019-02-27T13:59:57.887Z,3.03
2019-02-27T14:02:04.090Z,3.13
2019-02-27T14:04:06.646Z,3.07
2019-02-27T14:06:11.890Z,2.60
2019-02-27T14:08:16.304Z,3.00
2019-02-27T14:10:20.797Z,3.47
2019-02-27T14:12:25.105Z,3.13
2019-02-27T14:14:29.762Z,3.23
2019-02-27T14:16:34.749Z,3.27
2019-02-27T14:18:38.587Z,3.57
2019-02-27T14:20:43.083Z,3.20
2019-02-27T14:22:47.498Z,2.87
2019-02-27T14:24:54.708Z,2.53
2019-02-27T14:26:56.249Z,2.70
2019-02-27T14:29:00.603Z,3.20
2019-02-27T14:31:09.051Z,2.83
2019-02-27T14:33:10.968Z,2.67
2019-02-27T14:35:13.870Z,2.87
2019-02-27T14:37:18.183Z,2.07
2019-02-27T14:39:22.683Z,2.77
2019-02-27T14:41:27.038Z,2.37
2019-02-27T14:43:31.381Z,3.60
2019-02-27T14:45:39.561Z,3.60
2019-02-27T14:47:40.287Z,2.80
2019-02-27T14:49:44.627Z,2.67
2019-02-27T14:51:49.070Z,3.20
2019-02-27T14:53:55.764Z,3.13
2019-02-27T14:55:57.781Z,3.03
2019-02-27T14:58:02.156Z,3.63
2019-02-27T15:00:09.164Z,3.50
2019-02-27T15:02:13.598Z,3.07
2019-02-27T15:04:18.063Z,3.40
2019-02-27T15:06:22.467Z,3.83
2019-02-27T15:08:26.848Z,3.10
2019-02-27T15:10:31.169Z,2.90
2019-02-27T15:12:35.572Z,3.13
2019-02-27T15:14:39.946Z,3.60
2019-02-27T15:16:48.979Z,3.40
2019-02-27T15:18:48.705Z,3.53
2019-02-27T15:20:53.115Z,3.80
2019-02-27T15:22:57.585Z,3.40
2019-02-27T15:25:02.002Z,3.73
2019-02-27T15:27:06.329Z,3.43
2019-02-27T15:29:10.707Z,3.00
2019-02-27T15:31:15.097Z,3.43
2019-02-27T15:33:19.470Z,3.60
2019-02-27T15:35:23.857Z,3.70
2019-02-27T15:37:28.272Z,3.73
2019-02-27T15:39:32.642Z,3.70
2019-02-27T15:41:40.081Z,3.40
2019-02-27T15:43:44.476Z,3.97
2019-02-27T15:45:49.149Z,3.83
2019-02-27T15:47:54.060Z,3.73
2019-02-27T15:49:58.470Z,4.27
2019-02-27T15:52:06.528Z,5.30
2019-02-27T15:54:07.223Z,4.57
2019-02-27T15:56:11.621Z,4.23
2019-02-27T15:58:16.124Z,4.33
2019-02-27T16:00:21.711Z,5.53
2019-02-27T16:02:26.119Z,4.50
2019-02-27T16:04:30.452Z,5.17
2019-02-27T16:06:37.167Z,5.03
2019-02-27T16:08:39.228Z,5.87
2019-02-27T16:10:44.069Z,5.17
2019-02-27T16:12:48.047Z,4.70
2019-02-27T16:14:52.472Z,4.30
2019-02-27T16:16:57.534Z,5.07
2019-02-27T16:19:02.423Z,4.80
2019-02-27T16:21:06.785Z,5.57
2019-02-27T16:23:11.118Z,5.27
2019-02-27T16:25:19.959Z,4.40
2019-02-27T16:27:22.279Z,4.70
2019-02-27T16:29:26.629Z,4.97
2019-02-27T16:31:31.027Z,4.90
2019-02-27T16:33:35.398Z,5.33
2019-02-27T16:35:42.036Z,5.20
2019-02-27T16:37:44.166Z,6.00
2019-02-27T16:39:48.546Z,5.87
2019-02-27T16:41:52.904Z,5.13
2019-02-27T16:43:57.260Z,5.77
2019-02-27T16:46:01.681Z,6.23
2019-02-27T16:48:06.122Z,6.10
2019-02-27T16:50:13.509Z,5.73
2019-02-27T16:52:18.296Z,6.87
2019-02-27T16:54:24.022Z,8.37
2019-02-27T16:56:27.130Z,8.60
2019-02-27T16:58:32.970Z,8.33
2019-02-27T17:00:36.389Z,8.27
2019-02-27T17:02:40.798Z,9.47
2019-02-27T17:04:45.195Z,8.93
2019-02-27T17:06:52.177Z,8.20
2019-02-27T17:08:54.295Z,8.90
2019-02-27T17:10:59.725Z,7.80
2019-02-27T17:13:03.166Z,8.13
2019-02-27T17:15:07.638Z,9.40
2019-02-27T17:17:12.037Z,9.60
2019-02-27T17:19:16.391Z,12.23
2019-02-27T17:21:22.560Z,21.27
2019-02-27T17:23:25.182Z,20.90
2019-02-27T17:25:30.280Z,20.63
2019-02-27T17:27:33.941Z,24.10
2019-02-27T17:29:38.385Z,24.07
2019-02-27T17:31:49.288Z,15.07
2019-02-27T17:33:47.234Z,13.90
2019-02-27T17:35:53.093Z,10.10
2019-02-27T17:37:56.129Z,10.53
2019-02-27T17:40:02.304Z,10.37
2019-02-27T17:42:04.859Z,9.53
2019-02-27T17:44:09.271Z,11.87
2019-02-27T17:46:13.642Z,11.13
2019-02-27T17:48:18.094Z,10.80
2019-02-27T17:50:22.490Z,10.10
2019-02-27T17:52:26.879Z,12.47
2019-02-27T17:54:32.108Z,9.17
2019-02-27T17:56:36.423Z,8.73
2019-02-27T17:58:40.832Z,6.60
2019-02-27T18:00:50.062Z,7.33
2019-02-27T18:02:49.803Z,6.90
2019-02-27T18:04:54.230Z,6.03
2019-02-27T18:07:00.592Z,11.03
2019-02-27T18:09:03.009Z,11.23
2019-02-27T18:11:07.526Z,12.53
2019-02-27T18:13:11.883Z,12.87
2019-02-27T18:15:20.025Z,18.37
2019-02-27T18:17:20.742Z,13.00
2019-02-27T18:19:25.197Z,8.70
2019-02-27T18:21:33.195Z,6.30
2019-02-27T18:23:34.269Z,9.50
2019-02-27T18:25:42.189Z,24.97
2019-02-27T18:27:43.331Z,35.43
2019-02-27T18:29:49.187Z,23.87
2019-02-27T18:31:53.678Z,22.37
2019-02-27T18:33:58.213Z,13.60
2019-02-27T18:36:04.793Z,13.40
2019-02-27T18:38:07.192Z,11.40
2019-02-27T18:40:12.836Z,11.10
2019-02-27T18:42:20.694Z,13.43
2019-02-27T18:44:21.733Z,12.87
2019-02-27T18:46:26.200Z,11.90
2019-02-27T18:48:30.728Z,11.03
2019-02-27T18:50:35.190Z,9.77
2019-02-27T18:52:39.687Z,9.23
2019-02-27T18:54:44.199Z,7.87
2019-02-27T18:56:49.571Z,6.87
2019-02-27T18:58:55.512Z,8.90
2019-02-27T19:00:58.062Z,14.50
2019-02-27T19:03:02.642Z,41.87
2019-02-27T19:05:07.918Z,55.37
2019-02-27T19:07:12.817Z,34.40
2019-02-27T19:09:16.787Z,44.63
2019-02-27T19:11:22.405Z,29.17
2019-02-27T19:13:25.654Z,24.30
2019-02-27T19:15:49.688Z,71.30
2019-02-27T19:21:17.601Z,39.97
2019-02-27T19:23:29.189Z,9.60
2019-02-27T19:25:38.109Z,15.23
2019-02-27T19:27:42.649Z,13.80
2019-02-27T19:29:47.167Z,15.83
2019-02-27T19:31:51.890Z,9.60
2019-02-27T19:33:56.095Z,29.73
2019-02-27T19:36:02.687Z,25.70
2019-02-27T19:38:05.062Z,31.00
2019-02-27T19:40:11.813Z,27.93
2019-02-27T19:42:16.649Z,22.93
2019-02-27T19:44:21.195Z,23.63
2019-02-27T19:46:25.673Z,22.73
2019-02-27T19:48:30.097Z,25.40
2019-02-27T19:50:34.610Z,24.03
2019-02-27T19:52:39.062Z,23.90
2019-02-27T19:54:43.502Z,22.57
2019-02-27T19:56:48.008Z,21.10
2019-02-27T19:58:52.530Z,21.80
2019-02-27T20:00:57.094Z,24.93
2019-02-27T20:03:01.791Z,22.90
2019-02-27T20:05:06.681Z,22.67
2019-02-27T20:07:11.650Z,31.57
2019-02-27T20:09:19.054Z,25.97
2019-02-27T20:11:20.738Z,27.10
2019-02-27T20:13:28.055Z,27.67
2019-02-27T20:15:29.759Z,32.40
2019-02-27T20:17:34.191Z,31.37
2019-02-27T20:19:38.672Z,32.73
2019-02-27T20:21:44.540Z,28.23
2019-02-27T20:23:47.706Z,26.57
2019-02-27T20:25:52.244Z,25.27
2019-02-27T20:27:57.885Z,28.73
2019-02-27T20:30:02.383Z,28.87
2019-02-27T20:32:06.877Z,26.47
2019-02-27T20:34:11.746Z,25.60
2019-02-27T20:36:16.966Z,22.33
2019-02-27T20:38:21.436Z,23.07
2019-02-27T20:40:27.646Z,20.50
2019-02-27T20:42:30.436Z,21.33
2019-02-27T20:44:37.280Z,21.50
2019-02-27T20:46:39.411Z,21.13
2019-02-27T20:48:43.860Z,21.03
2019-02-27T20:50:48.357Z,18.30
2019-02-27T20:52:52.813Z,16.07
2019-02-27T20:54:58.797Z,13.07
2019-02-27T20:57:01.711Z,15.50
2019-02-27T20:59:06.258Z,16.07
2019-02-27T21:01:13.639Z,17.20
2019-02-27T21:03:15.211Z,16.17
2019-02-27T21:05:19.787Z,16.47
2019-02-27T21:07:26.104Z,16.17
2019-02-27T21:09:28.668Z,16.10
2019-02-27T21:11:33.154Z,15.83
2019-02-27T21:13:37.535Z,17.47
2019-02-27T21:15:42.036Z,15.87
2019-02-27T21:17:46.615Z,16.57
2019-02-27T21:19:52.477Z,16.50
2019-02-27T21:21:55.567Z,15.13
2019-02-27T21:24:00.030Z,14.20
2019-02-27T21:26:04.512Z,16.43
2019-02-27T21:28:09.019Z,18.93
2019-02-27T21:30:18.734Z,19.63
2019-02-27T21:32:20.070Z,21.60
2019-02-27T21:34:24.471Z,19.30
2019-02-27T21:36:28.910Z,19.43
2019-02-27T21:38:33.327Z,18.83
2019-02-27T21:40:38.708Z,19.73
2019-02-27T21:42:43.277Z,19.03
2019-02-27T21:44:47.761Z,19.63
2019-02-27T21:46:52.192Z,17.93
2019-02-27T21:48:58.595Z,15.90
2019-02-27T21:51:01.899Z,15.50
2019-02-27T21:53:06.484Z,17.07
2019-02-27T21:55:13.069Z,16.60
2019-02-27T21:57:15.674Z,13.20
2019-02-27T21:59:20.149Z,14.63
2019-02-27T22:01:25.583Z,12.87
2019-02-27T22:03:30.088Z,13.93
2019-02-27T22:05:42.595Z,14.90
2019-02-27T22:07:39.858Z,16.00
2019-02-27T22:09:44.818Z,14.77
2019-02-27T22:11:48.820Z,13.03
2019-02-27T22:13:53.272Z,16.70
2019-02-27T22:15:57.833Z,14.80
2019-02-27T22:18:11.078Z,13.43
2019-02-27T22:20:18.595Z,12.63
2019-02-27T22:22:30.137Z,14.10
2019-02-27T22:24:39.832Z,12.93
2019-02-27T22:26:51.684Z,11.07
2019-02-27T22:28:56.250Z,13.70
2019-02-27T22:31:06.282Z,11.47
2019-02-27T22:33:05.209Z,11.87
2019-02-27T22:35:09.643Z,11.27
2019-02-27T22:37:17.531Z,11.30
2019-02-27T22:39:18.615Z,12.77
2019-02-27T22:41:23.068Z,11.47
2019-02-27T22:43:27.571Z,12.57
2019-02-27T22:45:31.983Z,13.00
2019-02-27T22:47:36.486Z,11.63
2019-02-27T22:49:41.280Z,12.10
2019-02-27T22:51:48.222Z,13.03
2019-02-27T22:53:50.275Z,12.17
2019-02-27T22:55:55.176Z,13.57
2019-02-27T22:57:59.565Z,11.93
2019-02-27T23:00:04.112Z,12.10
2019-02-27T23:02:08.674Z,13.23
2019-02-27T23:04:13.087Z,14.67
2019-02-27T23:06:17.607Z,13.27
2019-02-27T23:08:23.115Z,13.60
2019-02-27T23:10:28.172Z,13.63
2019-02-27T23:12:31.911Z,12.67
2019-02-27T23:14:36.306Z,12.73
2019-02-27T23:16:40.762Z,10.17
2019-02-27T23:18:45.297Z,9.60
2019-02-27T23:20:52.450Z,9.60
2019-02-27T23:22:54.296Z,7.70
2019-02-27T23:24:58.756Z,6.67
2019-02-27T23:27:03.383Z,8.87
2019-02-27T23:29:07.656Z,9.00
2019-02-27T23:31:12.084Z,9.67
2019-02-27T23:33:16.638Z,8.73
2019-02-27T23:35:21.081Z,8.53
2019-02-27T23:37:29.278Z,7.90
2019-02-27T23:39:30.157Z,8.20
2019-02-27T23:41:34.634Z,8.83
2019-02-27T23:43:39.152Z,8.10
2019-02-27T23:45:44.512Z,7.23
2019-02-27T23:47:48.110Z,8.23
2019-02-27T23:49:52.625Z,6.50
2019-02-27T23:51:57.246Z,5.93
2019-02-27T23:54:02.030Z,7.47
2019-02-27T23:56:06.347Z,7.87
2019-02-27T23:58:10.698Z,7.53
